sensor_id;sensor_type;location;lat;lon;timestamp;P1;durP1;ratioP1;P2;durP2;ratioP2
75851;SDS011;64500;52.632;20.656;2022-12-18T00:01:28;27.90;;;14.00;;
75851;SDS011;64500;52.632;20.656;2022-12-18T00:04:05;27.40;;;13.50;;
75851;SDS011;64500;52.632;20.656;2022-12-18T00:06:34;25.50;;;12.60;;
75851;SDS011;64500;52.632;20.656;2022-12-18T00:09:02;29.50;;;14.70;;
75851;SDS011;64500;52.632;20.656;2022-12-18T00:11:30;27.40;;;13.80;;
75851;SDS011;64500;52.632;20.656;2022-12-18T00:13:58;27.20;;;14.40;;
75851;SDS011;64500;52.632;20.656;2022-12-18T00:16:27;28.80;;;14.00;;
75851;SDS011;64500;52.632;20.656;2022-12-18T00:18:55;26.10;;;13.10;;
75851;SDS011;64500;52.632;20.656;2022-12-18T00:21:24;23.40;;;12.60;;
75851;SDS011;64500;52.632;20.656;2022-12-18T00:23:51;28.50;;;13.60;;
75851;SDS011;64500;52.632;20.656;2022-12-18T00:26:26;27.90;;;13.90;;
75851;SDS011;64500;52.632;20.656;2022-12-18T00:28:57;24.10;;;12.70;;
75851;SDS011;64500;52.632;20.656;2022-12-18T00:31:26;27.00;;;14.00;;
75851;SDS011;64500;52.632;20.656;2022-12-18T00:33:53;26.10;;;13.20;;
75851;SDS011;64500;52.632;20.656;2022-12-18T00:36:24;25.00;;;13.30;;
75851;SDS011;64500;52.632;20.656;2022-12-18T00:41:23;27.40;;;13.70;;
75851;SDS011;64500;52.632;20.656;2022-12-18T00:44:11;26.10;;;13.20;;
75851;SDS011;64500;52.632;20.656;2022-12-18T00:46:39;24.40;;;13.00;;
75851;SDS011;64500;52.632;20.656;2022-12-18T00:49:07;25.00;;;12.90;;
75851;SDS011;64500;52.632;20.656;2022-12-18T00:51:34;25.60;;;12.90;;
75851;SDS011;64500;52.632;20.656;2022-12-18T00:54:01;24.50;;;11.50;;
75851;SDS011;64500;52.632;20.656;2022-12-18T00:56:29;23.30;;;12.20;;
75851;SDS011;64500;52.632;20.656;2022-12-18T00:58:56;25.60;;;12.90;;
75851;SDS011;64500;52.632;20.656;2022-12-18T01:01:23;27.20;;;13.20;;
75851;SDS011;64500;52.632;20.656;2022-12-18T01:03:50;26.50;;;12.80;;
75851;SDS011;64500;52.632;20.656;2022-12-18T01:06:17;27.40;;;12.80;;
75851;SDS011;64500;52.632;20.656;2022-12-18T01:08:45;24.50;;;13.10;;
75851;SDS011;64500;52.632;20.656;2022-12-18T01:11:13;25.20;;;12.30;;
75851;SDS011;64500;52.632;20.656;2022-12-18T01:13:42;25.10;;;12.90;;
75851;SDS011;64500;52.632;20.656;2022-12-18T01:16:13;26.30;;;13.00;;
75851;SDS011;64500;52.632;20.656;2022-12-18T01:18:42;25.80;;;13.10;;
75851;SDS011;64500;52.632;20.656;2022-12-18T01:21:10;23.30;;;11.70;;
75851;SDS011;64500;52.632;20.656;2022-12-18T01:23:38;25.80;;;12.00;;
75851;SDS011;64500;52.632;20.656;2022-12-18T01:26:06;23.10;;;12.00;;
75851;SDS011;64500;52.632;20.656;2022-12-18T01:28:39;22.40;;;10.80;;
75851;SDS011;64500;52.632;20.656;2022-12-18T01:33:42;22.10;;;11.50;;
75851;SDS011;64500;52.632;20.656;2022-12-18T01:36:14;23.70;;;12.00;;
75851;SDS011;64500;52.632;20.656;2022-12-18T01:39:03;21.10;;;11.00;;
75851;SDS011;64500;52.632;20.656;2022-12-18T01:41:33;23.40;;;12.30;;
75851;SDS011;64500;52.632;20.656;2022-12-18T01:50:15;23.60;;;11.70;;
75851;SDS011;64500;52.632;20.656;2022-12-18T01:52:42;21.60;;;10.80;;
75851;SDS011;64500;52.632;20.656;2022-12-18T01:55:14;24.40;;;12.00;;
75851;SDS011;64500;52.632;20.656;2022-12-18T01:57:44;23.80;;;12.20;;
75851;SDS011;64500;52.632;20.656;2022-12-18T02:00:14;24.10;;;11.60;;
75851;SDS011;64500;52.632;20.656;2022-12-18T02:02:46;22.10;;;11.90;;
75851;SDS011;64500;52.632;20.656;2022-12-18T02:05:18;24.70;;;11.70;;
75851;SDS011;64500;52.632;20.656;2022-12-18T02:19:34;21.30;;;10.70;;
75851;SDS011;64500;52.632;20.656;2022-12-18T02:25:32;22.80;;;11.70;;
75851;SDS011;64500;52.632;20.656;2022-12-18T02:28:05;22.30;;;11.00;;
75851;SDS011;64500;52.632;20.656;2022-12-18T02:30:37;23.10;;;11.00;;
75851;SDS011;64500;52.632;20.656;2022-12-18T02:33:06;21.80;;;11.30;;
75851;SDS011;64500;52.632;20.656;2022-12-18T02:35:35;25.20;;;11.30;;
75851;SDS011;64500;52.632;20.656;2022-12-18T02:38:03;21.60;;;10.80;;
75851;SDS011;64500;52.632;20.656;2022-12-18T02:40:31;22.60;;;10.60;;
75851;SDS011;64500;52.632;20.656;2022-12-18T02:43:06;21.80;;;10.40;;
75851;SDS011;64500;52.632;20.656;2022-12-18T02:45:35;21.10;;;10.20;;
75851;SDS011;64500;52.632;20.656;2022-12-18T02:48:02;22.20;;;11.40;;
75851;SDS011;64500;52.632;20.656;2022-12-18T02:53:15;21.10;;;10.20;;
75851;SDS011;64500;52.632;20.656;2022-12-18T02:55:52;21.10;;;9.60;;
75851;SDS011;64500;52.632;20.656;2022-12-18T03:01:25;21.20;;;11.00;;
75851;SDS011;64500;52.632;20.656;2022-12-18T03:04:04;20.50;;;10.60;;
75851;SDS011;64500;52.632;20.656;2022-12-18T03:06:48;23.70;;;11.20;;
75851;SDS011;64500;52.632;20.656;2022-12-18T03:09:21;22.80;;;11.10;;
75851;SDS011;64500;52.632;20.656;2022-12-18T03:12:07;21.20;;;10.40;;
75851;SDS011;64500;52.632;20.656;2022-12-18T03:17:32;20.20;;;10.80;;
75851;SDS011;64500;52.632;20.656;2022-12-18T03:20:05;21.50;;;10.60;;
75851;SDS011;64500;52.632;20.656;2022-12-18T03:22:37;23.10;;;11.30;;
75851;SDS011;64500;52.632;20.656;2022-12-18T03:25:06;19.50;;;9.90;;
75851;SDS011;64500;52.632;20.656;2022-12-18T03:27:36;18.70;;;9.90;;
75851;SDS011;64500;52.632;20.656;2022-12-18T03:30:11;21.20;;;10.70;;
75851;SDS011;64500;52.632;20.656;2022-12-18T03:35:17;21.70;;;11.10;;
75851;SDS011;64500;52.632;20.656;2022-12-18T03:37:49;19.60;;;10.60;;
75851;SDS011;64500;52.632;20.656;2022-12-18T03:40:17;21.80;;;11.40;;
75851;SDS011;64500;52.632;20.656;2022-12-18T03:45:26;23.70;;;11.30;;
75851;SDS011;64500;52.632;20.656;2022-12-18T03:50:57;23.40;;;11.60;;
75851;SDS011;64500;52.632;20.656;2022-12-18T03:55:56;21.60;;;11.00;;
75851;SDS011;64500;52.632;20.656;2022-12-18T03:58:25;22.60;;;11.50;;
75851;SDS011;64500;52.632;20.656;2022-12-18T04:00:55;26.50;;;11.40;;
75851;SDS011;64500;52.632;20.656;2022-12-18T04:03:24;24.30;;;11.90;;
75851;SDS011;64500;52.632;20.656;2022-12-18T04:05:54;24.20;;;11.10;;
75851;SDS011;64500;52.632;20.656;2022-12-18T04:08:23;24.10;;;12.30;;
75851;SDS011;64500;52.632;20.656;2022-12-18T04:10:53;23.00;;;11.40;;
75851;SDS011;64500;52.632;20.656;2022-12-18T04:13:24;25.60;;;12.80;;
75851;SDS011;64500;52.632;20.656;2022-12-18T04:15:55;23.90;;;12.30;;
75851;SDS011;64500;52.632;20.656;2022-12-18T04:18:22;22.80;;;11.90;;
75851;SDS011;64500;52.632;20.656;2022-12-18T04:20:49;22.50;;;11.60;;
75851;SDS011;64500;52.632;20.656;2022-12-18T04:23:17;28.20;;;14.00;;
75851;SDS011;64500;52.632;20.656;2022-12-18T04:25:44;27.20;;;13.40;;
75851;SDS011;64500;52.632;20.656;2022-12-18T04:28:13;29.80;;;12.40;;
75851;SDS011;64500;52.632;20.656;2022-12-18T04:30:40;27.30;;;13.20;;
75851;SDS011;64500;52.632;20.656;2022-12-18T04:33:11;26.70;;;12.90;;
75851;SDS011;64500;52.632;20.656;2022-12-18T04:35:39;22.10;;;11.90;;
75851;SDS011;64500;52.632;20.656;2022-12-18T04:38:08;26.00;;;13.10;;
75851;SDS011;64500;52.632;20.656;2022-12-18T04:40:36;30.20;;;14.00;;
75851;SDS011;64500;52.632;20.656;2022-12-18T04:43:03;25.60;;;13.80;;
75851;SDS011;64500;52.632;20.656;2022-12-18T04:45:31;28.00;;;13.30;;
75851;SDS011;64500;52.632;20.656;2022-12-18T04:47:59;30.10;;;15.60;;
75851;SDS011;64500;52.632;20.656;2022-12-18T04:50:28;27.50;;;13.00;;
75851;SDS011;64500;52.632;20.656;2022-12-18T04:52:56;31.10;;;14.50;;
75851;SDS011;64500;52.632;20.656;2022-12-18T04:55:23;31.40;;;13.90;;
75851;SDS011;64500;52.632;20.656;2022-12-18T04:57:52;34.20;;;15.60;;
75851;SDS011;64500;52.632;20.656;2022-12-18T05:00:19;33.30;;;15.00;;
75851;SDS011;64500;52.632;20.656;2022-12-18T05:02:47;34.10;;;16.00;;
75851;SDS011;64500;52.632;20.656;2022-12-18T05:05:14;32.90;;;15.50;;
75851;SDS011;64500;52.632;20.656;2022-12-18T05:07:41;31.50;;;14.90;;
75851;SDS011;64500;52.632;20.656;2022-12-18T05:10:08;34.00;;;15.50;;
75851;SDS011;64500;52.632;20.656;2022-12-18T05:12:36;33.30;;;16.70;;
75851;SDS011;64500;52.632;20.656;2022-12-18T05:15:26;39.30;;;17.30;;
75851;SDS011;64500;52.632;20.656;2022-12-18T05:17:55;36.40;;;17.40;;
75851;SDS011;64500;52.632;20.656;2022-12-18T05:20:22;39.60;;;18.20;;
75851;SDS011;64500;52.632;20.656;2022-12-18T05:22:50;38.90;;;18.20;;
75851;SDS011;64500;52.632;20.656;2022-12-18T05:25:17;38.90;;;18.10;;
75851;SDS011;64500;52.632;20.656;2022-12-18T05:27:45;49.20;;;20.80;;
75851;SDS011;64500;52.632;20.656;2022-12-18T05:30:13;39.50;;;18.50;;
75851;SDS011;64500;52.632;20.656;2022-12-18T05:32:41;34.00;;;16.60;;
75851;SDS011;64500;52.632;20.656;2022-12-18T05:35:10;44.80;;;20.30;;
75851;SDS011;64500;52.632;20.656;2022-12-18T05:37:37;39.80;;;17.60;;
75851;SDS011;64500;52.632;20.656;2022-12-18T05:40:05;39.00;;;17.10;;
75851;SDS011;64500;52.632;20.656;2022-12-18T05:42:32;39.80;;;18.90;;
75851;SDS011;64500;52.632;20.656;2022-12-18T05:44:59;44.60;;;19.90;;
75851;SDS011;64500;52.632;20.656;2022-12-18T05:47:27;45.70;;;20.30;;
75851;SDS011;64500;52.632;20.656;2022-12-18T05:49:55;47.80;;;21.40;;
75851;SDS011;64500;52.632;20.656;2022-12-18T05:52:22;43.20;;;19.60;;
75851;SDS011;64500;52.632;20.656;2022-12-18T05:54:50;44.60;;;21.00;;
75851;SDS011;64500;52.632;20.656;2022-12-18T05:57:17;66.80;;;26.70;;
75851;SDS011;64500;52.632;20.656;2022-12-18T05:59:44;47.60;;;20.60;;
75851;SDS011;64500;52.632;20.656;2022-12-18T06:02:11;69.00;;;27.10;;
75851;SDS011;64500;52.632;20.656;2022-12-18T06:04:38;68.80;;;28.70;;
75851;SDS011;64500;52.632;20.656;2022-12-18T06:07:05;64.90;;;26.70;;
75851;SDS011;64500;52.632;20.656;2022-12-18T06:09:32;69.20;;;25.40;;
75851;SDS011;64500;52.632;20.656;2022-12-18T06:11:59;71.90;;;27.10;;
75851;SDS011;64500;52.632;20.656;2022-12-18T06:14:26;72.50;;;28.70;;
75851;SDS011;64500;52.632;20.656;2022-12-18T06:16:54;71.20;;;28.90;;
75851;SDS011;64500;52.632;20.656;2022-12-18T06:19:21;60.30;;;25.10;;
75851;SDS011;64500;52.632;20.656;2022-12-18T06:21:48;49.20;;;22.60;;
75851;SDS011;64500;52.632;20.656;2022-12-18T06:24:16;66.90;;;27.50;;
75851;SDS011;64500;52.632;20.656;2022-12-18T06:26:42;65.20;;;26.40;;
75851;SDS011;64500;52.632;20.656;2022-12-18T06:29:10;72.10;;;27.90;;
75851;SDS011;64500;52.632;20.656;2022-12-18T06:31:37;66.40;;;24.90;;
75851;SDS011;64500;52.632;20.656;2022-12-18T06:34:04;54.60;;;23.90;;
75851;SDS011;64500;52.632;20.656;2022-12-18T06:36:31;68.60;;;26.50;;
75851;SDS011;64500;52.632;20.656;2022-12-18T06:38:58;72.20;;;27.90;;
75851;SDS011;64500;52.632;20.656;2022-12-18T06:41:26;51.20;;;22.20;;
75851;SDS011;64500;52.632;20.656;2022-12-18T06:43:53;50.60;;;19.50;;
75851;SDS011;64500;52.632;20.656;2022-12-18T06:46:20;56.90;;;23.60;;
75851;SDS011;64500;52.632;20.656;2022-12-18T06:48:48;56.30;;;22.50;;
75851;SDS011;64500;52.632;20.656;2022-12-18T06:51:17;63.10;;;25.40;;
75851;SDS011;64500;52.632;20.656;2022-12-18T06:53:48;73.30;;;28.70;;
75851;SDS011;64500;52.632;20.656;2022-12-18T06:56:16;55.10;;;25.00;;
75851;SDS011;64500;52.632;20.656;2022-12-18T06:58:43;56.80;;;23.30;;
75851;SDS011;64500;52.632;20.656;2022-12-18T07:01:11;51.50;;;22.20;;
75851;SDS011;64500;52.632;20.656;2022-12-18T07:03:39;59.30;;;25.20;;
75851;SDS011;64500;52.632;20.656;2022-12-18T07:06:17;51.80;;;22.80;;
75851;SDS011;64500;52.632;20.656;2022-12-18T07:08:46;55.10;;;22.00;;
75851;SDS011;64500;52.632;20.656;2022-12-18T07:11:14;58.30;;;23.80;;
75851;SDS011;64500;52.632;20.656;2022-12-18T07:13:42;57.20;;;23.50;;
75851;SDS011;64500;52.632;20.656;2022-12-18T07:18:39;56.40;;;22.70;;
75851;SDS011;64500;52.632;20.656;2022-12-18T07:21:07;54.40;;;23.10;;
75851;SDS011;64500;52.632;20.656;2022-12-18T07:23:37;50.10;;;23.20;;
75851;SDS011;64500;52.632;20.656;2022-12-18T07:26:04;50.60;;;23.10;;
75851;SDS011;64500;52.632;20.656;2022-12-18T07:28:37;56.70;;;23.90;;
75851;SDS011;64500;52.632;20.656;2022-12-18T07:31:12;53.60;;;22.90;;
75851;SDS011;64500;52.632;20.656;2022-12-18T07:33:45;54.70;;;22.10;;
75851;SDS011;64500;52.632;20.656;2022-12-18T07:36:12;51.90;;;21.60;;
75851;SDS011;64500;52.632;20.656;2022-12-18T07:38:40;51.10;;;22.20;;
75851;SDS011;64500;52.632;20.656;2022-12-18T07:41:11;45.30;;;19.70;;
75851;SDS011;64500;52.632;20.656;2022-12-18T07:43:40;46.00;;;21.30;;
75851;SDS011;64500;52.632;20.656;2022-12-18T07:46:08;48.80;;;21.00;;
75851;SDS011;64500;52.632;20.656;2022-12-18T07:48:36;51.70;;;21.80;;
75851;SDS011;64500;52.632;20.656;2022-12-18T07:51:04;46.50;;;20.90;;
75851;SDS011;64500;52.632;20.656;2022-12-18T07:53:33;47.10;;;20.60;;
75851;SDS011;64500;52.632;20.656;2022-12-18T07:56:03;53.20;;;22.50;;
75851;SDS011;64500;52.632;20.656;2022-12-18T07:58:32;54.80;;;23.10;;
75851;SDS011;64500;52.632;20.656;2022-12-18T08:01:07;50.40;;;22.10;;
75851;SDS011;64500;52.632;20.656;2022-12-18T08:03:39;54.80;;;22.40;;
75851;SDS011;64500;52.632;20.656;2022-12-18T08:06:07;53.50;;;22.40;;
75851;SDS011;64500;52.632;20.656;2022-12-18T08:08:35;49.60;;;22.30;;
75851;SDS011;64500;52.632;20.656;2022-12-18T08:11:03;45.90;;;21.00;;
75851;SDS011;64500;52.632;20.656;2022-12-18T08:13:30;49.70;;;22.00;;
75851;SDS011;64500;52.632;20.656;2022-12-18T08:15:58;47.90;;;22.00;;
75851;SDS011;64500;52.632;20.656;2022-12-18T08:18:27;48.80;;;22.40;;
75851;SDS011;64500;52.632;20.656;2022-12-18T08:20:55;53.80;;;22.20;;
75851;SDS011;64500;52.632;20.656;2022-12-18T08:23:22;52.60;;;22.80;;
75851;SDS011;64500;52.632;20.656;2022-12-18T08:25:49;50.40;;;21.50;;
75851;SDS011;64500;52.632;20.656;2022-12-18T08:28:17;57.20;;;23.10;;
75851;SDS011;64500;52.632;20.656;2022-12-18T08:30:45;56.70;;;24.90;;
75851;SDS011;64500;52.632;20.656;2022-12-18T08:33:12;55.80;;;23.50;;
75851;SDS011;64500;52.632;20.656;2022-12-18T08:35:39;51.40;;;21.20;;
75851;SDS011;64500;52.632;20.656;2022-12-18T08:38:07;58.00;;;25.10;;
75851;SDS011;64500;52.632;20.656;2022-12-18T08:40:35;56.50;;;24.40;;
75851;SDS011;64500;52.632;20.656;2022-12-18T08:43:01;55.90;;;22.30;;
75851;SDS011;64500;52.632;20.656;2022-12-18T08:45:47;50.30;;;22.30;;
75851;SDS011;64500;52.632;20.656;2022-12-18T08:48:14;58.90;;;23.00;;
75851;SDS011;64500;52.632;20.656;2022-12-18T08:50:41;50.70;;;22.50;;
75851;SDS011;64500;52.632;20.656;2022-12-18T08:53:08;51.90;;;23.80;;
75851;SDS011;64500;52.632;20.656;2022-12-18T08:55:36;54.90;;;24.20;;
75851;SDS011;64500;52.632;20.656;2022-12-18T08:58:03;48.80;;;23.50;;
75851;SDS011;64500;52.632;20.656;2022-12-18T09:00:30;50.80;;;21.80;;
75851;SDS011;64500;52.632;20.656;2022-12-18T09:03:00;53.00;;;23.60;;
75851;SDS011;64500;52.632;20.656;2022-12-18T09:05:28;52.90;;;23.20;;
75851;SDS011;64500;52.632;20.656;2022-12-18T09:07:55;64.80;;;24.90;;
75851;SDS011;64500;52.632;20.656;2022-12-18T09:10:23;61.10;;;25.00;;
75851;SDS011;64500;52.632;20.656;2022-12-18T09:12:50;55.10;;;23.90;;
75851;SDS011;64500;52.632;20.656;2022-12-18T09:15:17;69.50;;;27.60;;
75851;SDS011;64500;52.632;20.656;2022-12-18T09:17:45;60.00;;;26.70;;
75851;SDS011;64500;52.632;20.656;2022-12-18T09:20:12;60.80;;;27.40;;
75851;SDS011;64500;52.632;20.656;2022-12-18T09:22:39;65.80;;;27.00;;
75851;SDS011;64500;52.632;20.656;2022-12-18T09:25:06;61.90;;;25.40;;
75851;SDS011;64500;52.632;20.656;2022-12-18T09:27:36;56.60;;;26.00;;
75851;SDS011;64500;52.632;20.656;2022-12-18T09:30:04;59.10;;;25.40;;
75851;SDS011;64500;52.632;20.656;2022-12-18T09:32:32;68.90;;;27.00;;
75851;SDS011;64500;52.632;20.656;2022-12-18T09:34:59;61.80;;;25.60;;
75851;SDS011;64500;52.632;20.656;2022-12-18T09:37:26;55.40;;;24.40;;
75851;SDS011;64500;52.632;20.656;2022-12-18T09:39:54;61.30;;;25.10;;
75851;SDS011;64500;52.632;20.656;2022-12-18T09:42:21;65.40;;;26.30;;
75851;SDS011;64500;52.632;20.656;2022-12-18T09:44:49;57.70;;;25.80;;
75851;SDS011;64500;52.632;20.656;2022-12-18T09:47:22;64.00;;;25.40;;
75851;SDS011;64500;52.632;20.656;2022-12-18T09:49:52;62.90;;;24.90;;
75851;SDS011;64500;52.632;20.656;2022-12-18T09:55:08;54.60;;;24.30;;
75851;SDS011;64500;52.632;20.656;2022-12-18T09:57:53;65.10;;;27.00;;
75851;SDS011;64500;52.632;20.656;2022-12-18T10:00:25;65.20;;;27.10;;
75851;SDS011;64500;52.632;20.656;2022-12-18T10:02:53;66.10;;;27.50;;
75851;SDS011;64500;52.632;20.656;2022-12-18T10:08:05;73.80;;;28.10;;
75851;SDS011;64500;52.632;20.656;2022-12-18T10:10:57;70.60;;;28.40;;
75851;SDS011;64500;52.632;20.656;2022-12-18T10:21:02;71.00;;;28.80;;
75851;SDS011;64500;52.632;20.656;2022-12-18T10:26:10;56.50;;;24.60;;
75851;SDS011;64500;52.632;20.656;2022-12-18T10:28:41;56.90;;;25.40;;
75851;SDS011;64500;52.632;20.656;2022-12-18T10:31:20;72.20;;;29.80;;
75851;SDS011;64500;52.632;20.656;2022-12-18T10:33:49;70.90;;;28.40;;
75851;SDS011;64500;52.632;20.656;2022-12-18T10:36:16;71.10;;;27.50;;
75851;SDS011;64500;52.632;20.656;2022-12-18T10:38:43;63.70;;;29.10;;
75851;SDS011;64500;52.632;20.656;2022-12-18T10:44:16;76.40;;;29.50;;
75851;SDS011;64500;52.632;20.656;2022-12-18T10:46:53;61.70;;;25.60;;
75851;SDS011;64500;52.632;20.656;2022-12-18T10:49:29;51.90;;;23.50;;
75851;SDS011;64500;52.632;20.656;2022-12-18T10:52:14;62.60;;;24.70;;
75851;SDS011;64500;52.632;20.656;2022-12-18T10:54:51;70.40;;;30.50;;
75851;SDS011;64500;52.632;20.656;2022-12-18T11:00:12;62.90;;;26.70;;
75851;SDS011;64500;52.632;20.656;2022-12-18T11:02:54;63.20;;;27.80;;
75851;SDS011;64500;52.632;20.656;2022-12-18T11:05:32;63.90;;;27.00;;
75851;SDS011;64500;52.632;20.656;2022-12-18T11:08:00;63.90;;;26.80;;
75851;SDS011;64500;52.632;20.656;2022-12-18T11:10:31;63.60;;;27.10;;
75851;SDS011;64500;52.632;20.656;2022-12-18T11:13:18;60.10;;;27.10;;
75851;SDS011;64500;52.632;20.656;2022-12-18T11:15:48;54.90;;;25.80;;
75851;SDS011;64500;52.632;20.656;2022-12-18T11:18:22;58.70;;;27.70;;
75851;SDS011;64500;52.632;20.656;2022-12-18T11:20:52;66.00;;;27.60;;
75851;SDS011;64500;52.632;20.656;2022-12-18T11:23:24;59.70;;;29.10;;
75851;SDS011;64500;52.632;20.656;2022-12-18T11:25:53;60.50;;;28.20;;
75851;SDS011;64500;52.632;20.656;2022-12-18T11:28:28;68.30;;;30.00;;
75851;SDS011;64500;52.632;20.656;2022-12-18T11:34:07;67.90;;;29.50;;
75851;SDS011;64500;52.632;20.656;2022-12-18T11:36:43;65.80;;;28.00;;
75851;SDS011;64500;52.632;20.656;2022-12-18T11:42:32;57.80;;;26.40;;
75851;SDS011;64500;52.632;20.656;2022-12-18T11:47:44;58.10;;;25.30;;
75851;SDS011;64500;52.632;20.656;2022-12-18T11:50:21;54.40;;;26.90;;
75851;SDS011;64500;52.632;20.656;2022-12-18T11:52:51;54.30;;;25.50;;
75851;SDS011;64500;52.632;20.656;2022-12-18T11:58:45;56.50;;;25.30;;
75851;SDS011;64500;52.632;20.656;2022-12-18T12:15:27;62.30;;;27.90;;
75851;SDS011;64500;52.632;20.656;2022-12-18T12:18:18;57.50;;;27.20;;
75851;SDS011;64500;52.632;20.656;2022-12-18T12:21:00;62.20;;;28.50;;
75851;SDS011;64500;52.632;20.656;2022-12-18T12:26:49;50.10;;;21.60;;
75851;SDS011;64500;52.632;20.656;2022-12-18T12:29:32;60.60;;;26.70;;
75851;SDS011;64500;52.632;20.656;2022-12-18T12:32:11;58.60;;;25.90;;
75851;SDS011;64500;52.632;20.656;2022-12-18T12:38:04;58.40;;;26.40;;
75851;SDS011;64500;52.632;20.656;2022-12-18T12:40:41;55.10;;;25.70;;
75851;SDS011;64500;52.632;20.656;2022-12-18T12:46:26;52.00;;;25.00;;
75851;SDS011;64500;52.632;20.656;2022-12-18T12:48:56;59.60;;;25.50;;
75851;SDS011;64500;52.632;20.656;2022-12-18T12:51:25;56.20;;;26.70;;
75851;SDS011;64500;52.632;20.656;2022-12-18T12:53:59;58.30;;;26.70;;
75851;SDS011;64500;52.632;20.656;2022-12-18T12:56:36;55.10;;;27.00;;
75851;SDS011;64500;52.632;20.656;2022-12-18T12:59:13;57.10;;;26.80;;
75851;SDS011;64500;52.632;20.656;2022-12-18T13:01:58;58.00;;;26.40;;
75851;SDS011;64500;52.632;20.656;2022-12-18T13:04:39;63.60;;;28.50;;
75851;SDS011;64500;52.632;20.656;2022-12-18T13:07:32;55.60;;;26.90;;
75851;SDS011;64500;52.632;20.656;2022-12-18T13:12:53;52.50;;;25.20;;
75851;SDS011;64500;52.632;20.656;2022-12-18T13:18:11;57.40;;;25.50;;
75851;SDS011;64500;52.632;20.656;2022-12-18T13:20:45;55.10;;;25.60;;
75851;SDS011;64500;52.632;20.656;2022-12-18T13:23:34;56.90;;;25.40;;
75851;SDS011;64500;52.632;20.656;2022-12-18T13:31:00;48.60;;;21.40;;
75851;SDS011;64500;52.632;20.656;2022-12-18T13:36:02;52.50;;;25.20;;
75851;SDS011;64500;52.632;20.656;2022-12-18T13:39:09;53.70;;;24.60;;
75851;SDS011;64500;52.632;20.656;2022-12-18T13:41:41;58.60;;;24.60;;
75851;SDS011;64500;52.632;20.656;2022-12-18T13:44:13;58.90;;;26.20;;
75851;SDS011;64500;52.632;20.656;2022-12-18T13:46:48;57.60;;;27.90;;
75851;SDS011;64500;52.632;20.656;2022-12-18T13:51:54;62.40;;;26.80;;
75851;SDS011;64500;52.632;20.656;2022-12-18T13:57:29;56.30;;;25.50;;
75851;SDS011;64500;52.632;20.656;2022-12-18T14:02:57;56.20;;;25.10;;
75851;SDS011;64500;52.632;20.656;2022-12-18T14:05:32;54.40;;;24.40;;
75851;SDS011;64500;52.632;20.656;2022-12-18T14:08:11;55.10;;;24.10;;
75851;SDS011;64500;52.632;20.656;2022-12-18T14:10:43;60.70;;;26.00;;
75851;SDS011;64500;52.632;20.656;2022-12-18T14:13:15;56.50;;;24.80;;
75851;SDS011;64500;52.632;20.656;2022-12-18T14:15:54;53.10;;;24.60;;
75851;SDS011;64500;52.632;20.656;2022-12-18T14:18:23;52.80;;;24.30;;
75851;SDS011;64500;52.632;20.656;2022-12-18T14:20:54;57.00;;;24.10;;
75851;SDS011;64500;52.632;20.656;2022-12-18T14:23:40;54.80;;;25.00;;
75851;SDS011;64500;52.632;20.656;2022-12-18T14:26:27;51.50;;;22.90;;
75851;SDS011;64500;52.632;20.656;2022-12-18T14:28:56;60.60;;;25.30;;
75851;SDS011;64500;52.632;20.656;2022-12-18T14:31:25;56.70;;;25.80;;
75851;SDS011;64500;52.632;20.656;2022-12-18T14:33:54;56.40;;;24.30;;
75851;SDS011;64500;52.632;20.656;2022-12-18T14:36:25;60.20;;;26.70;;
75851;SDS011;64500;52.632;20.656;2022-12-18T14:38:56;60.00;;;26.40;;
75851;SDS011;64500;52.632;20.656;2022-12-18T14:41:24;57.60;;;24.90;;
75851;SDS011;64500;52.632;20.656;2022-12-18T14:43:53;56.20;;;25.20;;
75851;SDS011;64500;52.632;20.656;2022-12-18T14:49:27;60.30;;;25.40;;
75851;SDS011;64500;52.632;20.656;2022-12-18T14:51:59;59.70;;;25.60;;
75851;SDS011;64500;52.632;20.656;2022-12-18T14:54:28;61.40;;;26.00;;
75851;SDS011;64500;52.632;20.656;2022-12-18T14:59:50;59.50;;;25.00;;
75851;SDS011;64500;52.632;20.656;2022-12-18T15:02:19;65.00;;;25.70;;
75851;SDS011;64500;52.632;20.656;2022-12-18T15:04:48;61.90;;;26.00;;
75851;SDS011;64500;52.632;20.656;2022-12-18T15:07:45;65.10;;;26.90;;
75851;SDS011;64500;52.632;20.656;2022-12-18T15:10:18;66.20;;;26.40;;
75851;SDS011;64500;52.632;20.656;2022-12-18T15:13:06;68.90;;;28.30;;
75851;SDS011;64500;52.632;20.656;2022-12-18T15:20:57;62.40;;;26.30;;
75851;SDS011;64500;52.632;20.656;2022-12-18T15:28:29;57.20;;;24.70;;
75851;SDS011;64500;52.632;20.656;2022-12-18T15:30:58;56.20;;;24.70;;
75851;SDS011;64500;52.632;20.656;2022-12-18T15:33:30;53.30;;;23.00;;
75851;SDS011;64500;52.632;20.656;2022-12-18T15:36:03;57.10;;;25.20;;
75851;SDS011;64500;52.632;20.656;2022-12-18T15:38:32;53.90;;;24.70;;
75851;SDS011;64500;52.632;20.656;2022-12-18T15:40:59;60.80;;;26.40;;
75851;SDS011;64500;52.632;20.656;2022-12-18T15:43:27;53.20;;;24.10;;
75851;SDS011;64500;52.632;20.656;2022-12-18T15:46:04;64.80;;;26.20;;
75851;SDS011;64500;52.632;20.656;2022-12-18T15:48:41;63.40;;;27.30;;
75851;SDS011;64500;52.632;20.656;2022-12-18T15:51:17;66.40;;;26.90;;
75851;SDS011;64500;52.632;20.656;2022-12-18T15:53:47;70.60;;;29.20;;
75851;SDS011;64500;52.632;20.656;2022-12-18T15:56:17;57.50;;;24.60;;
75851;SDS011;64500;52.632;20.656;2022-12-18T15:59:13;76.10;;;29.10;;
75851;SDS011;64500;52.632;20.656;2022-12-18T16:01:43;72.70;;;28.90;;
75851;SDS011;64500;52.632;20.656;2022-12-18T16:04:13;66.70;;;28.20;;
75851;SDS011;64500;52.632;20.656;2022-12-18T16:06:42;67.90;;;27.20;;
75851;SDS011;64500;52.632;20.656;2022-12-18T16:09:09;64.30;;;26.50;;
75851;SDS011;64500;52.632;20.656;2022-12-18T16:11:38;68.00;;;28.20;;
75851;SDS011;64500;52.632;20.656;2022-12-18T16:14:22;67.90;;;26.60;;
75851;SDS011;64500;52.632;20.656;2022-12-18T16:16:58;60.80;;;24.00;;
75851;SDS011;64500;52.632;20.656;2022-12-18T16:19:27;65.10;;;26.80;;
75851;SDS011;64500;52.632;20.656;2022-12-18T16:21:55;62.20;;;24.70;;
75851;SDS011;64500;52.632;20.656;2022-12-18T16:24:27;61.80;;;25.50;;
75851;SDS011;64500;52.632;20.656;2022-12-18T16:26:58;59.70;;;25.10;;
75851;SDS011;64500;52.632;20.656;2022-12-18T16:29:27;68.50;;;25.50;;
75851;SDS011;64500;52.632;20.656;2022-12-18T16:31:56;70.50;;;26.30;;
75851;SDS011;64500;52.632;20.656;2022-12-18T16:34:26;69.20;;;25.70;;
75851;SDS011;64500;52.632;20.656;2022-12-18T16:36:58;63.20;;;23.80;;
75851;SDS011;64500;52.632;20.656;2022-12-18T16:41:55;65.30;;;25.00;;
75851;SDS011;64500;52.632;20.656;2022-12-18T16:44:22;62.20;;;25.60;;
75851;SDS011;64500;52.632;20.656;2022-12-18T16:46:49;68.50;;;25.20;;
75851;SDS011;64500;52.632;20.656;2022-12-18T16:49:17;65.30;;;25.90;;
75851;SDS011;64500;52.632;20.656;2022-12-18T16:51:45;62.90;;;24.20;;
75851;SDS011;64500;52.632;20.656;2022-12-18T16:54:13;65.60;;;24.90;;
75851;SDS011;64500;52.632;20.656;2022-12-18T16:56:41;58.90;;;24.20;;